sensor_id;sensor_type;location;lat;lon;timestamp;pressure;altitude;pressure_sealevel;temperature;humidity
37078;BME280;22989;55.998;37.212;2023-03-13T00:00:53;-11298.94;;;-145.39;60.53
37078;BME280;22989;55.998;37.212;2023-03-13T00:03:19;-11298.94;;;-145.39;60.23
37078;BME280;22989;55.998;37.212;2023-03-13T00:05:44;-11298.94;;;-145.39;60.51
37078;BME280;22989;55.998;37.212;2023-03-13T00:08:10;-11298.94;;;-145.39;60.36
37078;BME280;22989;55.998;37.212;2023-03-13T00:10:37;-11298.94;;;-145.39;60.36
37078;BME280;22989;55.998;37.212;2023-03-13T00:13:03;-11298.94;;;-145.39;60.30
37078;BME280;22989;55.998;37.212;2023-03-13T00:15:29;-11298.94;;;-145.39;60.18
37078;BME280;22989;55.998;37.212;2023-03-13T00:17:54;-11298.94;;;-145.39;60.16
37078;BME280;22989;55.998;37.212;2023-03-13T00:20:20;-11298.94;;;-145.39;60.12
37078;BME280;22989;55.998;37.212;2023-03-13T00:22:46;-11298.94;;;-145.39;60.31
37078;BME280;22989;55.998;37.212;2023-03-13T00:25:11;-11298.94;;;-145.39;60.29
37078;BME280;22989;55.998;37.212;2023-03-13T00:27:37;-11298.94;;;-145.39;60.23
37078;BME280;22989;55.998;37.212;2023-03-13T00:30:03;-11298.94;;;-145.39;60.15
37078;BME280;22989;55.998;37.212;2023-03-13T00:32:28;-11298.94;;;-145.39;60.06
37078;BME280;22989;55.998;37.212;2023-03-13T00:34:54;-11298.94;;;-145.39;59.93
37078;BME280;22989;55.998;37.212;2023-03-13T00:37:19;-11298.94;;;-145.39;59.94
37078;BME280;22989;55.998;37.212;2023-03-13T00:39:46;-11298.94;;;-145.39;59.63
37078;BME280;22989;55.998;37.212;2023-03-13T00:42:12;-11298.94;;;-145.39;59.52
37078;BME280;22989;55.998;37.212;2023-03-13T00:44:37;-11298.94;;;-145.39;59.59
37078;BME280;22989;55.998;37.212;2023-03-13T00:47:05;-11298.94;;;-145.39;59.21
37078;BME280;22989;55.998;37.212;2023-03-13T00:49:32;-11298.94;;;-145.39;59.51
37078;BME280;22989;55.998;37.212;2023-03-13T00:51:57;-11298.94;;;-145.39;59.57
37078;BME280;22989;55.998;37.212;2023-03-13T00:54:23;-11298.94;;;-145.39;59.64
37078;BME280;22989;55.998;37.212;2023-03-13T00:56:49;-11298.94;;;-145.39;59.74
37078;BME280;22989;55.998;37.212;2023-03-13T00:59:15;-11298.94;;;-145.39;59.66
37078;BME280;22989;55.998;37.212;2023-03-13T01:01:40;-11298.94;;;-145.39;59.60
37078;BME280;22989;55.998;37.212;2023-03-13T01:04:08;-11298.94;;;-145.39;59.74
37078;BME280;22989;55.998;37.212;2023-03-13T01:06:38;-11298.94;;;-145.39;59.67
37078;BME280;22989;55.998;37.212;2023-03-13T01:09:09;-11298.94;;;-145.39;59.62
37078;BME280;22989;55.998;37.212;2023-03-13T01:11:37;-11298.94;;;-145.39;59.65
37078;BME280;22989;55.998;37.212;2023-03-13T01:14:06;-11298.94;;;-145.39;59.88
37078;BME280;22989;55.998;37.212;2023-03-13T01:16:34;-11298.94;;;-145.39;59.86
37078;BME280;22989;55.998;37.212;2023-03-13T01:19:02;-11298.94;;;-145.39;60.08
37078;BME280;22989;55.998;37.212;2023-03-13T01:21:29;-11298.94;;;-145.39;59.84
37078;BME280;22989;55.998;37.212;2023-03-13T01:23:55;-11298.94;;;-145.39;60.18
37078;BME280;22989;55.998;37.212;2023-03-13T01:26:21;-11298.94;;;-145.39;60.22
37078;BME280;22989;55.998;37.212;2023-03-13T01:28:47;-11298.94;;;-145.39;60.27
37078;BME280;22989;55.998;37.212;2023-03-13T01:31:30;-11298.94;;;-145.39;60.59
37078;BME280;22989;55.998;37.212;2023-03-13T01:33:58;-11298.94;;;-145.39;60.59
37078;BME280;22989;55.998;37.212;2023-03-13T01:36:25;-11298.94;;;-145.39;60.37
37078;BME280;22989;55.998;37.212;2023-03-13T01:38:56;-11298.94;;;-145.39;60.72
37078;BME280;22989;55.998;37.212;2023-03-13T01:41:23;-11298.94;;;-145.39;60.71
37078;BME280;22989;55.998;37.212;2023-03-13T01:43:50;-11298.94;;;-145.39;60.69
37078;BME280;22989;55.998;37.212;2023-03-13T01:46:17;-11298.94;;;-145.39;60.66
37078;BME280;22989;55.998;37.212;2023-03-13T01:49:22;-11298.94;;;-145.39;60.73
37078;BME280;22989;55.998;37.212;2023-03-13T01:52:14;-11298.94;;;-145.39;60.97
37078;BME280;22989;55.998;37.212;2023-03-13T01:55:03;-11298.94;;;-145.39;61.05
37078;BME280;22989;55.998;37.212;2023-03-13T01:57:35;-11298.94;;;-145.39;61.39
37078;BME280;22989;55.998;37.212;2023-03-13T02:00:22;-11298.94;;;-145.39;61.16
37078;BME280;22989;55.998;37.212;2023-03-13T02:02:51;-11298.94;;;-145.39;61.35
37078;BME280;22989;55.998;37.212;2023-03-13T02:05:20;-11298.94;;;-145.39;61.62
37078;BME280;22989;55.998;37.212;2023-03-13T02:07:53;-11298.94;;;-145.39;61.54
37078;BME280;22989;55.998;37.212;2023-03-13T02:10:20;-11298.94;;;-145.39;61.62
37078;BME280;22989;55.998;37.212;2023-03-13T02:12:47;-11298.94;;;-145.39;61.69
37078;BME280;22989;55.998;37.212;2023-03-13T02:15:16;-11298.94;;;-145.39;61.80
37078;BME280;22989;55.998;37.212;2023-03-13T02:17:44;-11298.94;;;-145.39;61.85
37078;BME280;22989;55.998;37.212;2023-03-13T02:20:10;-11298.94;;;-145.39;61.80
37078;BME280;22989;55.998;37.212;2023-03-13T02:22:51;-11298.94;;;-145.39;61.96
37078;BME280;22989;55.998;37.212;2023-03-13T02:25:41;-11298.94;;;-145.39;61.86
37078;BME280;22989;55.998;37.212;2023-03-13T02:28:20;-11298.94;;;-145.39;62.17
37078;BME280;22989;55.998;37.212;2023-03-13T02:30:47;-11298.94;;;-145.39;62.05
37078;BME280;22989;55.998;37.212;2023-03-13T02:33:14;-11298.94;;;-145.39;62.16
37078;BME280;22989;55.998;37.212;2023-03-13T02:35:42;-11298.94;;;-145.39;62.29
37078;BME280;22989;55.998;37.212;2023-03-13T02:38:14;-11298.94;;;-145.39;62.38
37078;BME280;22989;55.998;37.212;2023-03-13T02:40:44;-11298.94;;;-145.39;62.12
37078;BME280;22989;55.998;37.212;2023-03-13T02:43:15;-11298.94;;;-145.39;62.26
37078;BME280;22989;55.998;37.212;2023-03-13T02:45:59;-11298.94;;;-145.39;62.29
37078;BME280;22989;55.998;37.212;2023-03-13T02:48:32;-11298.94;;;-145.39;62.37
37078;BME280;22989;55.998;37.212;2023-03-13T02:51:01;-11298.94;;;-145.39;62.26
37078;BME280;22989;55.998;37.212;2023-03-13T02:53:28;-11298.94;;;-145.39;62.38
37078;BME280;22989;55.998;37.212;2023-03-13T02:55:54;-11298.94;;;-145.39;62.32
37078;BME280;22989;55.998;37.212;2023-03-13T02:58:23;-11298.94;;;-145.39;62.46
37078;BME280;22989;55.998;37.212;2023-03-13T03:00:49;-11298.94;;;-145.39;62.38
37078;BME280;22989;55.998;37.212;2023-03-13T03:03:16;-11298.94;;;-145.39;62.72
37078;BME280;22989;55.998;37.212;2023-03-13T03:05:41;-11298.94;;;-145.39;62.48
37078;BME280;22989;55.998;37.212;2023-03-13T03:08:07;-11298.94;;;-145.39;62.38
37078;BME280;22989;55.998;37.212;2023-03-13T03:10:35;-11298.94;;;-145.39;62.67
37078;BME280;22989;55.998;37.212;2023-03-13T03:13:02;-11298.94;;;-145.39;62.58
37078;BME280;22989;55.998;37.212;2023-03-13T03:15:29;-11298.94;;;-145.39;62.69
37078;BME280;22989;55.998;37.212;2023-03-13T03:17:54;-11298.94;;;-145.39;62.60
37078;BME280;22989;55.998;37.212;2023-03-13T03:20:20;-11298.94;;;-145.39;62.59
37078;BME280;22989;55.998;37.212;2023-03-13T03:22:46;-11298.94;;;-145.39;62.82
37078;BME280;22989;55.998;37.212;2023-03-13T03:25:11;-11298.94;;;-145.39;62.49
37078;BME280;22989;55.998;37.212;2023-03-13T03:27:38;-11298.94;;;-145.39;62.53
37078;BME280;22989;55.998;37.212;2023-03-13T03:30:07;-11298.94;;;-145.39;62.70
37078;BME280;22989;55.998;37.212;2023-03-13T03:32:34;-11298.94;;;-145.39;62.60
37078;BME280;22989;55.998;37.212;2023-03-13T03:35:00;-11298.94;;;-145.39;62.85
37078;BME280;22989;55.998;37.212;2023-03-13T03:37:26;-11298.94;;;-145.39;62.84
37078;BME280;22989;55.998;37.212;2023-03-13T03:39:51;-11298.94;;;-145.39;62.96
37078;BME280;22989;55.998;37.212;2023-03-13T03:42:17;-11298.94;;;-145.39;62.53
37078;BME280;22989;55.998;37.212;2023-03-13T03:44:43;-11298.94;;;-145.39;62.65
37078;BME280;22989;55.998;37.212;2023-03-13T03:47:09;-11298.94;;;-145.39;62.71
37078;BME280;22989;55.998;37.212;2023-03-13T03:49:40;-11298.94;;;-145.39;62.82
37078;BME280;22989;55.998;37.212;2023-03-13T03:52:08;-11298.94;;;-145.39;62.72
37078;BME280;22989;55.998;37.212;2023-03-13T03:54:37;-11298.94;;;-145.39;62.54
37078;BME280;22989;55.998;37.212;2023-03-13T03:57:03;-11298.94;;;-145.39;62.53
37078;BME280;22989;55.998;37.212;2023-03-13T03:59:29;-11298.94;;;-145.39;62.70
37078;BME280;22989;55.998;37.212;2023-03-13T04:01:56;-11298.94;;;-145.39;62.62
37078;BME280;22989;55.998;37.212;2023-03-13T04:04:25;-11298.94;;;-145.39;62.67
37078;BME280;22989;55.998;37.212;2023-03-13T04:06:58;-11298.94;;;-145.39;62.65
37078;BME280;22989;55.998;37.212;2023-03-13T04:09:26;-11298.94;;;-145.39;62.50
37078;BME280;22989;55.998;37.212;2023-03-13T04:11:51;-11298.94;;;-145.39;62.33
37078;BME280;22989;55.998;37.212;2023-03-13T04:14:17;-11298.94;;;-145.39;62.57
37078;BME280;22989;55.998;37.212;2023-03-13T04:16:43;-11298.94;;;-145.39;62.50
37078;BME280;22989;55.998;37.212;2023-03-13T04:19:09;-11298.94;;;-145.39;62.46
37078;BME280;22989;55.998;37.212;2023-03-13T04:21:35;-11298.94;;;-145.39;62.47
37078;BME280;22989;55.998;37.212;2023-03-13T04:24:06;-11298.94;;;-145.39;62.35
37078;BME280;22989;55.998;37.212;2023-03-13T04:26:33;-11298.94;;;-145.39;61.87
37078;BME280;22989;55.998;37.212;2023-03-13T04:28:59;-11298.94;;;-145.39;61.17
37078;BME280;22989;55.998;37.212;2023-03-13T04:31:38;-11298.94;;;-145.39;59.98
37078;BME280;22989;55.998;37.212;2023-03-13T04:34:25;-11298.94;;;-145.39;58.50
37078;BME280;22989;55.998;37.212;2023-03-13T04:37:09;-11298.94;;;-145.39;57.35
37078;BME280;22989;55.998;37.212;2023-03-13T04:39:51;-11298.94;;;-145.39;56.05
37078;BME280;22989;55.998;37.212;2023-03-13T04:42:35;-11298.94;;;-145.39;54.42
37078;BME280;22989;55.998;37.212;2023-03-13T04:45:21;-11298.94;;;-145.39;51.97
37078;BME280;22989;55.998;37.212;2023-03-13T04:48:19;-11298.94;;;-145.39;50.19
37078;BME280;22989;55.998;37.212;2023-03-13T04:50:55;-11298.94;;;-145.39;49.90
37078;BME280;22989;55.998;37.212;2023-03-13T04:53:49;-11298.94;;;-145.39;48.88
37078;BME280;22989;55.998;37.212;2023-03-13T04:56:41;-11298.94;;;-145.39;48.23
37078;BME280;22989;55.998;37.212;2023-03-13T04:59:33;-11298.94;;;-145.39;46.69
37078;BME280;22989;55.998;37.212;2023-03-13T05:02:34;-11298.94;;;-145.39;45.67
37078;BME280;22989;55.998;37.212;2023-03-13T05:05:06;-11298.94;;;-145.39;44.74
37078;BME280;22989;55.998;37.212;2023-03-13T05:07:56;-11298.94;;;-145.39;43.61
37078;BME280;22989;55.998;37.212;2023-03-13T05:10:50;-11298.94;;;-145.39;42.39
37078;BME280;22989;55.998;37.212;2023-03-13T05:13:42;-11298.94;;;-145.39;41.31
37078;BME280;22989;55.998;37.212;2023-03-13T05:16:34;-11298.94;;;-145.39;41.30
37078;BME280;22989;55.998;37.212;2023-03-13T05:19:27;-11298.94;;;-145.39;40.21
37078;BME280;22989;55.998;37.212;2023-03-13T05:22:25;-11298.94;;;-145.39;39.60
37078;BME280;22989;55.998;37.212;2023-03-13T05:25:09;-11298.94;;;-145.39;42.66
37078;BME280;22989;55.998;37.212;2023-03-13T05:27:53;-11298.94;;;-145.39;43.74
37078;BME280;22989;55.998;37.212;2023-03-13T05:30:38;-11298.94;;;-145.39;45.26
37078;BME280;22989;55.998;37.212;2023-03-13T05:33:23;-11298.94;;;-145.39;46.24
37078;BME280;22989;55.998;37.212;2023-03-13T05:36:18;-11298.94;;;-145.39;46.69
37078;BME280;22989;55.998;37.212;2023-03-13T05:39:12;-11298.94;;;-145.39;46.14
37078;BME280;22989;55.998;37.212;2023-03-13T05:42:04;-11298.94;;;-145.39;44.37
37078;BME280;22989;55.998;37.212;2023-03-13T05:44:50;-11298.94;;;-145.39;42.37
37078;BME280;22989;55.998;37.212;2023-03-13T05:47:35;-11298.94;;;-145.39;39.28
37078;BME280;22989;55.998;37.212;2023-03-13T05:50:23;-11298.94;;;-145.39;37.83
37078;BME280;22989;55.998;37.212;2023-03-13T05:52:55;-11298.94;;;-145.39;36.39
37078;BME280;22989;55.998;37.212;2023-03-13T05:55:46;-11298.94;;;-145.39;36.98
37078;BME280;22989;55.998;37.212;2023-03-13T05:58:38;-11298.94;;;-145.39;38.31
37078;BME280;22989;55.998;37.212;2023-03-13T06:01:30;-11298.94;;;-145.39;37.52
37078;BME280;22989;55.998;37.212;2023-03-13T06:04:04;-11298.94;;;-145.39;38.46
37078;BME280;22989;55.998;37.212;2023-03-13T06:06:33;-11298.94;;;-145.39;39.94
37078;BME280;22989;55.998;37.212;2023-03-13T06:08:59;-11298.94;;;-145.39;40.47
37078;BME280;22989;55.998;37.212;2023-03-13T06:11:27;-11298.94;;;-145.39;40.13
37078;BME280;22989;55.998;37.212;2023-03-13T06:13:54;-11298.94;;;-145.39;38.44
37078;BME280;22989;55.998;37.212;2023-03-13T06:16:42;-11298.94;;;-145.39;37.39
37078;BME280;22989;55.998;37.212;2023-03-13T06:19:17;-11298.94;;;-145.39;36.23
37078;BME280;22989;55.998;37.212;2023-03-13T06:21:43;-11298.94;;;-145.39;36.30
37078;BME280;22989;55.998;37.212;2023-03-13T06:24:08;-11298.94;;;-145.39;35.26
37078;BME280;22989;55.998;37.212;2023-03-13T06:26:34;-11298.94;;;-145.39;34.89
37078;BME280;22989;55.998;37.212;2023-03-13T06:28:59;-11298.94;;;-145.39;35.49
37078;BME280;22989;55.998;37.212;2023-03-13T06:31:25;-11298.94;;;-145.39;36.13
37078;BME280;22989;55.998;37.212;2023-03-13T06:33:54;-11298.94;;;-145.39;34.62
37078;BME280;22989;55.998;37.212;2023-03-13T06:36:21;-11298.94;;;-145.39;35.04
37078;BME280;22989;55.998;37.212;2023-03-13T06:38:46;-11298.94;;;-145.39;35.38
37078;BME280;22989;55.998;37.212;2023-03-13T06:41:12;-11298.94;;;-145.39;34.63
37078;BME280;22989;55.998;37.212;2023-03-13T06:43:37;-11298.94;;;-145.39;35.30
37078;BME280;22989;55.998;37.212;2023-03-13T06:46:05;-11298.94;;;-145.39;34.77
37078;BME280;22989;55.998;37.212;2023-03-13T06:48:31;-11298.94;;;-145.39;35.03
37078;BME280;22989;55.998;37.212;2023-03-13T06:50:56;-11298.94;;;-145.39;35.58
37078;BME280;22989;55.998;37.212;2023-03-13T06:53:22;-11298.94;;;-145.39;34.94
37078;BME280;22989;55.998;37.212;2023-03-13T06:55:48;-11298.94;;;-145.39;35.13
37078;BME280;22989;55.998;37.212;2023-03-13T06:58:14;-11298.94;;;-145.39;34.67
37078;BME280;22989;55.998;37.212;2023-03-13T07:00:39;-11298.94;;;-145.39;34.51
37078;BME280;22989;55.998;37.212;2023-03-13T07:03:06;-11298.94;;;-145.39;34.53
37078;BME280;22989;55.998;37.212;2023-03-13T07:05:32;-11298.94;;;-145.39;35.39
37078;BME280;22989;55.998;37.212;2023-03-13T07:07:58;-11298.94;;;-145.39;35.92
37078;BME280;22989;55.998;37.212;2023-03-13T07:10:23;-11298.94;;;-145.39;36.04
37078;BME280;22989;55.998;37.212;2023-03-13T07:12:49;-11298.94;;;-145.39;35.96
37078;BME280;22989;55.998;37.212;2023-03-13T07:15:15;-11298.94;;;-145.39;36.38
37078;BME280;22989;55.998;37.212;2023-03-13T07:17:40;-11298.94;;;-145.39;37.15
37078;BME280;22989;55.998;37.212;2023-03-13T07:20:06;-11298.94;;;-145.39;37.37
37078;BME280;22989;55.998;37.212;2023-03-13T07:22:38;-11298.94;;;-145.39;37.95
37078;BME280;22989;55.998;37.212;2023-03-13T07:25:04;-11298.94;;;-145.39;37.73
37078;BME280;22989;55.998;37.212;2023-03-13T07:27:31;-11298.94;;;-145.39;37.78
37078;BME280;22989;55.998;37.212;2023-03-13T07:29:56;-11298.94;;;-145.39;37.96
37078;BME280;22989;55.998;37.212;2023-03-13T07:32:22;-11298.94;;;-145.39;37.77
37078;BME280;22989;55.998;37.212;2023-03-13T07:34:48;-11298.94;;;-145.39;37.70
37078;BME280;22989;55.998;37.212;2023-03-13T07:37:15;-11298.94;;;-145.39;37.50
37078;BME280;22989;55.998;37.212;2023-03-13T07:39:42;-11298.94;;;-145.39;37.60
37078;BME280;22989;55.998;37.212;2023-03-13T07:42:11;-11298.94;;;-145.39;37.97
37078;BME280;22989;55.998;37.212;2023-03-13T07:44:38;-11298.94;;;-145.39;38.47
37078;BME280;22989;55.998;37.212;2023-03-13T07:47:04;-11298.94;;;-145.39;38.89
37078;BME280;22989;55.998;37.212;2023-03-13T07:49:31;-11298.94;;;-145.39;39.10
37078;BME280;22989;55.998;37.212;2023-03-13T07:51:58;-11298.94;;;-145.39;39.26
37078;BME280;22989;55.998;37.212;2023-03-13T07:54:23;-11298.94;;;-145.39;39.42
37078;BME280;22989;55.998;37.212;2023-03-13T07:56:49;-11298.94;;;-145.39;39.59
37078;BME280;22989;55.998;37.212;2023-03-13T07:59:15;-11298.94;;;-145.39;39.93
37078;BME280;22989;55.998;37.212;2023-03-13T08:01:40;-11298.94;;;-145.39;40.30
37078;BME280;22989;55.998;37.212;2023-03-13T08:04:10;-11298.94;;;-145.39;40.67
37078;BME280;22989;55.998;37.212;2023-03-13T08:06:37;-11298.94;;;-145.39;40.99
37078;BME280;22989;55.998;37.212;2023-03-13T08:09:04;-11298.94;;;-145.39;41.11
37078;BME280;22989;55.998;37.212;2023-03-13T08:11:29;-11298.94;;;-145.39;41.57
37078;BME280;22989;55.998;37.212;2023-03-13T08:13:56;-11298.94;;;-145.39;41.86
37078;BME280;22989;55.998;37.212;2023-03-13T08:16:27;-11298.94;;;-145.39;42.14
37078;BME280;22989;55.998;37.212;2023-03-13T08:18:55;-11298.94;;;-145.39;42.17
37078;BME280;22989;55.998;37.212;2023-03-13T08:21:29;-11298.94;;;-145.39;42.40
37078;BME280;22989;55.998;37.212;2023-03-13T08:23:57;-11298.94;;;-145.39;42.45
37078;BME280;22989;55.998;37.212;2023-03-13T08:26:25;-11298.94;;;-145.39;42.57
37078;BME280;22989;55.998;37.212;2023-03-13T08:28:54;-11298.94;;;-145.39;42.52
37078;BME280;22989;55.998;37.212;2023-03-13T08:31:25;-11298.94;;;-145.39;42.54
37078;BME280;22989;55.998;37.212;2023-03-13T08:33:51;-11298.94;;;-145.39;42.33
37078;BME280;22989;55.998;37.212;2023-03-13T08:36:22;-11298.94;;;-145.39;42.17
37078;BME280;22989;55.998;37.212;2023-03-13T08:38:50;-11298.94;;;-145.39;42.07
37078;BME280;22989;55.998;37.212;2023-03-13T08:41:19;-11298.94;;;-145.39;42.40
37078;BME280;22989;55.998;37.212;2023-03-13T08:43:45;-11298.94;;;-145.39;43.75
37078;BME280;22989;55.998;37.212;2023-03-13T08:46:11;-11298.94;;;-145.39;45.58
37078;BME280;22989;55.998;37.212;2023-03-13T08:48:38;-11298.94;;;-145.39;46.90
37078;BME280;22989;55.998;37.212;2023-03-13T08:51:04;-11298.94;;;-145.39;47.98
37078;BME280;22989;55.998;37.212;2023-03-13T08:53:31;-11298.94;;;-145.39;49.05
37078;BME280;22989;55.998;37.212;2023-03-13T08:55:57;-11298.94;;;-145.39;49.90
37078;BME280;22989;55.998;37.212;2023-03-13T08:58:23;-11298.94;;;-145.39;50.20
37078;BME280;22989;55.998;37.212;2023-03-13T09:00:49;-11298.94;;;-145.39;50.04
37078;BME280;22989;55.998;37.212;2023-03-13T09:03:14;-11298.94;;;-145.39;50.49
37078;BME280;22989;55.998;37.212;2023-03-13T09:05:41;-11298.94;;;-145.39;50.44
37078;BME280;22989;55.998;37.212;2023-03-13T09:08:07;-11298.94;;;-145.39;50.21
37078;BME280;22989;55.998;37.212;2023-03-13T09:10:33;-11298.94;;;-145.39;49.51
37078;BME280;22989;55.998;37.212;2023-03-13T09:13:00;-11298.94;;;-145.39;49.59
37078;BME280;22989;55.998;37.212;2023-03-13T09:15:26;-11298.94;;;-145.39;49.79
37078;BME280;22989;55.998;37.212;2023-03-13T09:17:54;-11298.94;;;-145.39;49.72
37078;BME280;22989;55.998;37.212;2023-03-13T09:20:20;-11298.94;;;-145.39;49.60
37078;BME280;22989;55.998;37.212;2023-03-13T09:22:45;-11298.94;;;-145.39;49.91
37078;BME280;22989;55.998;37.212;2023-03-13T09:25:12;-11298.94;;;-145.39;50.18
37078;BME280;22989;55.998;37.212;2023-03-13T09:27:38;-11298.94;;;-145.39;50.46
37078;BME280;22989;55.998;37.212;2023-03-13T09:30:04;-11298.94;;;-145.39;50.19
37078;BME280;22989;55.998;37.212;2023-03-13T09:32:30;-11298.94;;;-145.39;50.40
37078;BME280;22989;55.998;37.212;2023-03-13T09:34:56;-11298.94;;;-145.39;50.64
37078;BME280;22989;55.998;37.212;2023-03-13T09:37:22;-11298.94;;;-145.39;50.81
37078;BME280;22989;55.998;37.212;2023-03-13T09:39:48;-11298.94;;;-145.39;50.79
37078;BME280;22989;55.998;37.212;2023-03-13T09:42:20;-11298.94;;;-145.39;51.24
37078;BME280;22989;55.998;37.212;2023-03-13T09:44:54;-11298.94;;;-145.39;50.93
37078;BME280;22989;55.998;37.212;2023-03-13T09:47:57;-11298.94;;;-145.39;50.40
37078;BME280;22989;55.998;37.212;2023-03-13T09:50:28;-11298.94;;;-145.39;50.66
37078;BME280;22989;55.998;37.212;2023-03-13T09:53:02;-11298.94;;;-145.39;50.64
37078;BME280;22989;55.998;37.212;2023-03-13T09:55:33;-11298.94;;;-145.39;50.58
37078;BME280;22989;55.998;37.212;2023-03-13T09:58:14;-11298.94;;;-145.39;50.42
37078;BME280;22989;55.998;37.212;2023-03-13T10:01:07;-11298.94;;;-145.39;50.29
37078;BME280;22989;55.998;37.212;2023-03-13T10:03:38;-11298.94;;;-145.39;50.50
37078;BME280;22989;55.998;37.212;2023-03-13T10:06:18;-11298.94;;;-145.39;50.16
37078;BME280;22989;55.998;37.212;2023-03-13T10:08:43;-11298.94;;;-145.39;49.98
37078;BME280;22989;55.998;37.212;2023-03-13T10:11:23;-11298.94;;;-145.39;49.70
37078;BME280;22989;55.998;37.212;2023-03-13T10:13:59;-11298.94;;;-145.39;49.46
37078;BME280;22989;55.998;37.212;2023-03-13T10:19:31;-11298.94;;;-145.39;48.61
37078;BME280;22989;55.998;37.212;2023-03-13T10:21:54;-11298.94;;;-145.39;48.23
37078;BME280;22989;55.998;37.212;2023-03-13T10:24:48;-11298.94;;;-145.39;47.95
37078;BME280;22989;55.998;37.212;2023-03-13T10:27:16;-11298.94;;;-145.39;47.89
37078;BME280;22989;55.998;37.212;2023-03-13T10:29:41;-11298.94;;;-145.39;47.93
37078;BME280;22989;55.998;37.212;2023-03-13T10:32:12;-11298.94;;;-145.39;48.03
37078;BME280;22989;55.998;37.212;2023-03-13T10:34:55;-11298.94;;;-145.39;48.16
37078;BME280;22989;55.998;37.212;2023-03-13T10:37:29;-11298.94;;;-145.39;48.35
37078;BME280;22989;55.998;37.212;2023-03-13T10:40:20;-11298.94;;;-145.39;48.29
37078;BME280;22989;55.998;37.212;2023-03-13T10:42:48;-11298.94;;;-145.39;48.35
37078;BME280;22989;55.998;37.212;2023-03-13T10:45:16;-11298.94;;;-145.39;48.33
37078;BME280;22989;55.998;37.212;2023-03-13T10:47:43;-11298.94;;;-145.39;48.21
37078;BME280;22989;55.998;37.212;2023-03-13T10:50:20;-11298.94;;;-145.39;48.55
37078;BME280;22989;55.998;37.212;2023-03-13T10:52:47;-11298.94;;;-145.39;48.84
37078;BME280;22989;55.998;37.212;2023-03-13T10:55:18;-11298.94;;;-145.39;49.19
37078;BME280;22989;55.998;37.212;2023-03-13T10:58:00;-11298.94;;;-145.39;49.45
37078;BME280;22989;55.998;37.212;2023-03-13T11:00:28;-11298.94;;;-145.39;49.63
37078;BME280;22989;55.998;37.212;2023-03-13T11:02:55;-11298.94;;;-145.39;49.46
37078;BME280;22989;55.998;37.212;2023-03-13T11:07:51;-11298.94;;;-145.39;48.72
37078;BME280;22989;55.998;37.212;2023-03-13T11:12:49;-11298.94;;;-145.39;47.65
37078;BME280;22989;55.998;37.212;2023-03-13T11:15:27;-11298.94;;;-145.39;47.31
37078;BME280;22989;55.998;37.212;2023-03-13T11:20:44;-11298.94;;;-145.39;46.83
37078;BME280;22989;55.998;37.212;2023-03-13T11:31:14;-11298.94;;;-145.39;44.52
37078;BME280;22989;55.998;37.212;2023-03-13T11:33:59;-11298.94;;;-145.39;44.31
37078;BME280;22989;55.998;37.212;2023-03-13T11:36:35;-11298.94;;;-145.39;43.80
37078;BME280;22989;55.998;37.212;2023-03-13T11:42:08;-11298.94;;;-145.39;43.87
37078;BME280;22989;55.998;37.212;2023-03-13T11:50:34;-11298.94;;;-145.39;43.72
37078;BME280;22989;55.998;37.212;2023-03-13T11:58:33;-11298.94;;;-145.39;43.34
37078;BME280;22989;55.998;37.212;2023-03-13T12:01:17;-11298.94;;;-145.39;43.95
37078;BME280;22989;55.998;37.212;2023-03-13T12:04:04;-11298.94;;;-145.39;44.37
37078;BME280;22989;55.998;37.212;2023-03-13T12:06:35;-11298.94;;;-145.39;44.27
37078;BME280;22989;55.998;37.212;2023-03-13T12:12:32;-11298.94;;;-145.39;44.08
37078;BME280;22989;55.998;37.212;2023-03-13T12:18:04;-11298.94;;;-145.39;44.12
37078;BME280;22989;55.998;37.212;2023-03-13T12:26:13;-11298.94;;;-145.39;43.61
37078;BME280;22989;55.998;37.212;2023-03-13T12:33:57;-11298.94;;;-145.39;43.45
37078;BME280;22989;55.998;37.212;2023-03-13T12:39:25;-11298.94;;;-145.39;43.55
37078;BME280;22989;55.998;37.212;2023-03-13T12:44:49;-11298.94;;;-145.39;43.87
37078;BME280;22989;55.998;37.212;2023-03-13T13:00:30;-11298.94;;;-145.39;44.33
37078;BME280;22989;55.998;37.212;2023-03-13T13:03:14;-11298.94;;;-145.39;44.44
37078;BME280;22989;55.998;37.212;2023-03-13T13:08:31;-11298.94;;;-145.39;44.30
37078;BME280;22989;55.998;37.212;2023-03-13T13:13:59;-11298.94;;;-145.39;44.05
37078;BME280;22989;55.998;37.212;2023-03-13T13:16:25;-11298.94;;;-145.39;44.10
37078;BME280;22989;55.998;37.212;2023-03-13T13:18:52;-11298.94;;;-145.39;44.21
37078;BME280;22989;55.998;37.212;2023-03-13T13:21:22;-11298.94;;;-145.39;44.40
37078;BME280;22989;55.998;37.212;2023-03-13T13:23:51;-11298.94;;;-145.39;44.32
37078;BME280;22989;55.998;37.212;2023-03-13T13:39:51;-11298.94;;;-145.39;44.96
37078;BME280;22989;55.998;37.212;2023-03-13T13:47:27;-11298.94;;;-145.39;45.67
37078;BME280;22989;55.998;37.212;2023-03-13T13:49:55;-11298.94;;;-145.39;45.65
37078;BME280;22989;55.998;37.212;2023-03-13T13:54:56;-11298.94;;;-145.39;45.75
37078;BME280;22989;55.998;37.212;2023-03-13T13:57:28;-11298.94;;;-145.39;45.90
37078;BME280;22989;55.998;37.212;2023-03-13T14:00:00;-11298.94;;;-145.39;46.07
37078;BME280;22989;55.998;37.212;2023-03-13T14:02:36;-11298.94;;;-145.39;46.18
37078;BME280;22989;55.998;37.212;2023-03-13T14:05:17;-11298.94;;;-145.39;46.31
37078;BME280;22989;55.998;37.212;2023-03-13T14:10:20;-11298.94;;;-145.39;46.66
37078;BME280;22989;55.998;37.212;2023-03-13T14:12:56;-11298.94;;;-145.39;46.86
37078;BME280;22989;55.998;37.212;2023-03-13T14:15:24;-11298.94;;;-145.39;47.00
37078;BME280;22989;55.998;37.212;2023-03-13T14:22:52;-11298.94;;;-145.39;47.55
37078;BME280;22989;55.998;37.212;2023-03-13T14:25:20;-11298.94;;;-145.39;47.79